createdAt,value
2023-02-11T00:01:30.289Z,29.35
2023-02-11T00:03:58.005Z,29.00
2023-02-11T00:06:28.199Z,29.42
2023-02-11T00:08:55.827Z,28.65
2023-02-11T00:11:25.779Z,29.67
2023-02-11T00:13:52.687Z,28.35
2023-02-11T00:16:21.265Z,27.63
2023-02-11T00:18:48.823Z,27.77
2023-02-11T00:21:18.611Z,29.63
2023-02-11T00:23:46.297Z,26.95
2023-02-11T00:26:19.835Z,27.55
2023-02-11T00:28:48.530Z,26.52
2023-02-11T00:31:17.584Z,26.27
2023-02-11T00:33:44.679Z,27.80
2023-02-11T00:36:18.502Z,26.63
2023-02-11T00:38:48.437Z,25.63
2023-02-11T00:41:16.267Z,29.58
2023-02-11T00:43:43.240Z,27.48
2023-02-11T00:46:10.970Z,29.27
2023-02-11T00:48:38.006Z,27.35
2023-02-11T00:51:05.670Z,28.38
2023-02-11T00:53:32.948Z,28.73
2023-02-11T00:56:01.298Z,27.85
2023-02-11T00:58:28.702Z,27.23
2023-02-11T01:00:56.652Z,28.88
2023-02-11T01:03:24.648Z,29.25
2023-02-11T01:05:52.453Z,27.60
2023-02-11T01:08:19.837Z,29.58
2023-02-11T01:10:58.541Z,28.90
2023-02-11T01:13:26.629Z,27.98
2023-02-11T01:15:55.919Z,28.60
2023-02-11T01:18:23.186Z,28.10
2023-02-11T01:20:52.066Z,28.60
2023-02-11T01:23:19.250Z,28.95
2023-02-11T01:25:46.411Z,28.63
2023-02-11T01:28:23.837Z,28.77
2023-02-11T01:30:52.907Z,26.83
2023-02-11T01:33:21.548Z,27.15
2023-02-11T01:35:49.158Z,27.90
2023-02-11T01:38:25.245Z,27.45
2023-02-11T01:41:10.897Z,28.08
2023-02-11T01:43:41.714Z,27.67
2023-02-11T01:46:33.582Z,27.85
2023-02-11T01:49:14.949Z,26.63
2023-02-11T01:51:44.573Z,27.85
2023-02-11T01:54:35.745Z,28.05
2023-02-11T01:57:22.714Z,27.38
2023-02-11T02:00:05.919Z,27.92
2023-02-11T02:03:05.265Z,27.30
2023-02-11T02:05:48.490Z,25.23
2023-02-11T02:08:21.932Z,26.75
2023-02-11T02:13:20.751Z,25.85
2023-02-11T02:16:03.078Z,28.33
2023-02-11T02:18:51.402Z,26.25
2023-02-11T02:21:42.539Z,26.95
2023-02-11T02:24:44.171Z,25.92
2023-02-11T02:27:26.200Z,26.88
2023-02-11T02:30:17.549Z,27.80
2023-02-11T02:33:26.294Z,25.75
2023-02-11T02:36:15.069Z,26.70
2023-02-11T02:38:55.850Z,26.70
2023-02-11T02:41:28.389Z,26.52
2023-02-11T02:46:23.634Z,26.67
2023-02-11T02:48:56.096Z,25.40
2023-02-11T02:51:36.812Z,19.87
2023-02-11T02:54:23.116Z,26.35
2023-02-11T02:57:38.852Z,25.80
2023-02-11T03:00:24.373Z,26.02
2023-02-11T03:03:26.265Z,25.13
2023-02-11T03:06:15.594Z,26.20
2023-02-11T03:08:50.914Z,25.38
2023-02-11T03:11:20.606Z,26.83
2023-02-11T03:13:49.300Z,26.42
2023-02-11T03:16:25.807Z,26.63
2023-02-11T03:19:13.658Z,27.00
2023-02-11T03:21:43.203Z,27.20
2023-02-11T03:24:24.605Z,27.02
2023-02-11T03:26:58.366Z,29.15
2023-02-11T03:29:24.920Z,26.85
2023-02-11T03:32:12.504Z,28.17
2023-02-11T03:35:05.216Z,25.95
2023-02-11T03:37:41.035Z,27.92
2023-02-11T03:40:09.836Z,25.83
2023-02-11T03:42:48.956Z,26.23
2023-02-11T03:45:19.673Z,25.95
2023-02-11T03:47:52.430Z,25.00
2023-02-11T03:50:21.319Z,24.20
2023-02-11T03:52:50.237Z,25.92
2023-02-11T03:55:19.133Z,27.45
2023-02-11T03:57:47.509Z,25.10
2023-02-11T04:00:14.990Z,25.48
2023-02-11T04:02:43.247Z,26.40
2023-02-11T04:05:12.868Z,25.90
2023-02-11T04:07:40.479Z,28.08
2023-02-11T04:10:07.812Z,27.30
2023-02-11T04:12:35.135Z,27.92
2023-02-11T04:15:01.753Z,29.13
2023-02-11T04:17:29.002Z,27.38
2023-02-11T04:19:55.632Z,27.63
2023-02-11T04:22:22.958Z,30.63
2023-02-11T04:24:49.677Z,29.42
2023-02-11T04:27:17.223Z,30.17
2023-02-11T04:29:43.823Z,29.98
2023-02-11T04:32:12.475Z,31.02
2023-02-11T04:34:39.310Z,30.40
2023-02-11T04:37:07.126Z,29.83
2023-02-11T04:39:34.024Z,29.52
2023-02-11T04:42:01.296Z,29.05
2023-02-11T04:44:28.084Z,28.95
2023-02-11T04:46:55.375Z,28.88
2023-02-11T04:49:22.169Z,29.45
2023-02-11T04:51:49.719Z,29.38
2023-02-11T04:54:17.292Z,28.80
2023-02-11T04:56:44.055Z,28.20
2023-02-11T04:59:12.915Z,27.38
2023-02-11T05:01:40.467Z,27.00
2023-02-11T05:04:07.972Z,26.70
2023-02-11T05:06:34.610Z,26.20
2023-02-11T05:09:01.967Z,26.50
2023-02-11T05:11:28.557Z,26.58
2023-02-11T05:13:55.909Z,26.25
2023-02-11T05:16:22.831Z,27.80
2023-02-11T05:18:52.560Z,26.35
2023-02-11T05:21:19.503Z,25.23
2023-02-11T05:23:46.959Z,27.13
2023-02-11T05:26:14.691Z,25.65
2023-02-11T05:28:42.495Z,26.92
2023-02-11T05:31:10.137Z,26.80
2023-02-11T05:33:37.510Z,27.67
2023-02-11T05:36:07.233Z,25.85
2023-02-11T05:38:35.257Z,26.65
2023-02-11T05:41:02.575Z,26.90
2023-02-11T05:43:29.901Z,26.42
2023-02-11T05:45:56.978Z,26.10
2023-02-11T05:48:24.503Z,26.30
2023-02-11T05:50:51.130Z,25.90
2023-02-11T05:53:18.394Z,25.45
2023-02-11T05:55:45.045Z,28.55
2023-02-11T05:58:12.365Z,27.10
2023-02-11T06:00:39.277Z,26.33
2023-02-11T06:03:06.647Z,27.35
2023-02-11T06:05:33.413Z,28.58
2023-02-11T06:08:00.757Z,28.85
2023-02-11T06:10:27.378Z,27.35
2023-02-11T06:12:54.677Z,27.35
2023-02-11T06:15:21.289Z,28.08
2023-02-11T06:17:48.544Z,26.80
2023-02-11T06:20:15.421Z,26.45
2023-02-11T06:22:42.730Z,29.35
2023-02-11T06:25:10.857Z,27.63
2023-02-11T06:27:39.184Z,29.05
2023-02-11T06:30:07.299Z,27.95
2023-02-11T06:32:49.594Z,26.83
2023-02-11T06:35:16.985Z,28.13
2023-02-11T06:37:44.233Z,29.33
2023-02-11T06:40:11.859Z,28.73
2023-02-11T06:42:39.144Z,29.50
2023-02-11T06:45:09.277Z,27.80
2023-02-11T06:47:36.509Z,29.30
2023-02-11T06:50:04.090Z,30.40
2023-02-11T06:52:30.694Z,30.02
2023-02-11T06:54:57.964Z,30.83
2023-02-11T06:57:25.680Z,30.02
2023-02-11T06:59:52.912Z,30.38
2023-02-11T07:02:21.017Z,30.10
2023-02-11T07:04:48.546Z,31.90
2023-02-11T07:07:15.434Z,30.15
2023-02-11T07:09:42.430Z,31.15
2023-02-11T07:12:11.979Z,31.50
2023-02-11T07:14:39.608Z,30.52
2023-02-11T07:17:06.238Z,30.08
2023-02-11T07:19:33.516Z,31.02
2023-02-11T07:22:00.233Z,29.77
2023-02-11T07:24:27.193Z,31.73
2023-02-11T07:26:54.354Z,30.05
2023-02-11T07:29:21.473Z,30.48
2023-02-11T07:31:48.238Z,32.35
2023-02-11T07:34:15.262Z,33.35
2023-02-11T07:36:43.663Z,32.67
2023-02-11T07:39:11.010Z,31.73
2023-02-11T07:41:38.300Z,31.17
2023-02-11T07:44:05.474Z,32.92
2023-02-11T07:46:34.394Z,32.47
2023-02-11T07:49:01.984Z,33.75
2023-02-11T07:51:30.776Z,34.28
2023-02-11T07:53:59.683Z,33.70
2023-02-11T07:56:26.869Z,35.67
2023-02-11T07:58:55.168Z,32.50
2023-02-11T08:01:25.229Z,31.67
2023-02-11T08:03:53.256Z,34.08
2023-02-11T08:06:21.411Z,33.25
2023-02-11T08:08:48.996Z,34.17
2023-02-11T08:11:22.681Z,31.92
2023-02-11T08:13:49.341Z,34.75
2023-02-11T08:16:28.408Z,34.47
2023-02-11T08:19:00.919Z,32.67
2023-02-11T08:21:28.711Z,36.03
2023-02-11T08:23:55.995Z,33.33
2023-02-11T08:26:29.033Z,34.30
2023-02-11T08:28:57.300Z,35.17
2023-02-11T08:31:31.147Z,32.97
2023-02-11T08:33:58.153Z,34.92
2023-02-11T08:36:29.310Z,35.78
2023-02-11T08:39:18.246Z,35.33
2023-02-11T08:41:49.082Z,34.85
2023-02-11T08:44:16.855Z,35.35
2023-02-11T08:46:44.154Z,34.80
2023-02-11T08:49:10.914Z,36.08
2023-02-11T08:51:38.201Z,36.40
2023-02-11T08:54:06.176Z,36.53
2023-02-11T08:56:33.816Z,34.95
2023-02-11T08:59:00.874Z,34.65
2023-02-11T09:01:30.374Z,36.17
2023-02-11T09:03:58.571Z,36.60
2023-02-11T09:06:26.837Z,37.78
2023-02-11T09:08:55.367Z,38.50
2023-02-11T09:11:28.552Z,37.85
2023-02-11T09:13:55.159Z,38.20
2023-02-11T09:16:28.624Z,36.85
2023-02-11T09:18:57.750Z,36.75
2023-02-11T09:21:25.584Z,37.85
2023-02-11T09:23:52.904Z,38.33
2023-02-11T09:26:23.093Z,40.75
2023-02-11T09:28:51.235Z,39.03
2023-02-11T09:31:21.796Z,39.25
2023-02-11T09:33:50.991Z,40.88
2023-02-11T09:36:23.602Z,39.78
2023-02-11T09:38:52.069Z,28.10
2023-02-11T09:41:57.326Z,38.75
2023-02-11T09:44:36.093Z,39.55
2023-02-11T09:47:07.367Z,40.72
2023-02-11T09:49:46.734Z,40.60
2023-02-11T09:52:26.581Z,42.05
2023-02-11T09:54:59.401Z,39.15
2023-02-11T09:57:37.359Z,43.00
2023-02-11T10:00:16.923Z,43.60
2023-02-11T10:02:59.579Z,41.80
2023-02-11T10:05:48.992Z,41.83
2023-02-11T10:08:57.848Z,42.33
2023-02-11T10:11:47.540Z,44.55
2023-02-11T10:14:51.862Z,42.45
2023-02-11T10:17:35.253Z,41.40
2023-02-11T10:20:50.190Z,42.55
2023-02-11T10:23:22.278Z,46.58
2023-02-11T10:25:54.330Z,48.92
2023-02-11T10:28:24.805Z,52.53
2023-02-11T10:31:18.124Z,59.40
2023-02-11T10:34:01.813Z,57.17
2023-02-11T10:38:59.897Z,47.22
2023-02-11T10:41:32.391Z,47.25
2023-02-11T10:44:01.344Z,44.55
2023-02-11T10:46:33.618Z,45.58
2023-02-11T10:49:01.073Z,44.75
2023-02-11T10:51:31.386Z,44.70
2023-02-11T10:54:04.271Z,45.88
2023-02-11T10:59:07.414Z,44.22
2023-02-11T11:02:00.817Z,44.78
2023-02-11T11:04:30.740Z,45.38
2023-02-11T11:07:17.981Z,44.75
2023-02-11T11:09:52.158Z,44.60
2023-02-11T11:12:46.367Z,46.97
2023-02-11T11:15:28.595Z,45.00
2023-02-11T11:18:24.343Z,45.17
2023-02-11T11:21:03.398Z,43.63
2023-02-11T11:23:31.367Z,43.97
2023-02-11T11:26:12.959Z,45.85
2023-02-11T11:29:02.979Z,45.17
2023-02-11T11:31:36.343Z,45.25
2023-02-11T11:34:33.569Z,44.63
2023-02-11T11:37:09.547Z,45.17
2023-02-11T11:39:36.981Z,44.97
2023-02-11T11:42:06.085Z,46.85
2023-02-11T11:44:38.530Z,46.78
2023-02-11T11:47:11.662Z,46.40
2023-02-11T11:50:11.873Z,46.90
2023-02-11T11:53:04.569Z,44.83
2023-02-11T11:55:40.042Z,45.13
2023-02-11T11:58:13.146Z,45.72
2023-02-11T12:01:06.347Z,46.25
2023-02-11T12:04:02.771Z,46.45
2023-02-11T12:07:00.654Z,48.67
2023-02-11T12:10:00.696Z,48.40
2023-02-11T12:12:45.841Z,47.53
2023-02-11T12:15:26.050Z,45.33
2023-02-11T12:18:13.985Z,45.92
2023-02-11T12:21:05.831Z,47.22
2023-02-11T12:23:57.650Z,46.33
2023-02-11T12:26:41.453Z,46.25
2023-02-11T12:29:25.761Z,48.83
2023-02-11T12:32:16.789Z,46.53
2023-02-11T12:35:02.887Z,47.42
2023-02-11T12:37:32.502Z,49.05
2023-02-11T12:40:07.447Z,45.78
2023-02-11T12:43:18.621Z,46.78
2023-02-11T12:46:00.987Z,49.00
2023-02-11T12:49:02.071Z,48.25
2023-02-11T12:51:50.393Z,48.08
2023-02-11T12:54:43.738Z,47.28
2023-02-11T12:57:29.205Z,46.80
2023-02-11T13:00:15.407Z,48.15
2023-02-11T13:02:55.506Z,46.40
2023-02-11T13:05:51.099Z,47.38
2023-02-11T13:08:36.704Z,47.33
2023-02-11T13:11:37.665Z,47.60
2023-02-11T13:14:13.930Z,48.80
2023-02-11T13:16:47.163Z,41.53
2023-02-11T13:21:56.423Z,45.58
2023-02-11T13:24:37.180Z,46.80
2023-02-11T13:27:30.720Z,47.60
2023-02-11T13:30:34.227Z,47.83
2023-02-11T13:33:01.543Z,45.97
2023-02-11T13:35:31.025Z,49.15
2023-02-11T13:38:00.373Z,47.42
2023-02-11T13:40:32.136Z,46.55
2023-02-11T13:43:05.160Z,49.03
2023-02-11T13:45:40.211Z,51.45
2023-02-11T13:48:23.172Z,48.70
2023-02-11T13:50:55.613Z,50.90
2023-02-11T13:53:23.892Z,47.85
2023-02-11T13:55:53.974Z,50.05
2023-02-11T13:58:27.428Z,51.78
2023-02-11T14:00:54.962Z,49.70
2023-02-11T14:03:53.308Z,48.03
2023-02-11T14:06:44.826Z,49.55
2023-02-11T14:09:17.406Z,48.78
2023-02-11T14:11:48.380Z,48.22
2023-02-11T14:14:24.132Z,46.60
2023-02-11T14:17:11.036Z,48.05
2023-02-11T14:19:40.068Z,48.42
2023-02-11T14:22:16.587Z,55.42
2023-02-11T14:24:57.140Z,48.10
2023-02-11T14:27:59.433Z,45.50
2023-02-11T14:30:39.074Z,47.58
2023-02-11T14:33:14.421Z,47.97
2023-02-11T14:35:50.057Z,47.28
2023-02-11T14:38:36.256Z,44.95
2023-02-11T14:41:11.196Z,48.50
2023-02-11T14:43:47.106Z,47.25
2023-02-11T14:46:17.439Z,48.83
2023-02-11T14:48:53.707Z,47.42
2023-02-11T14:51:26.439Z,45.45
2023-02-11T14:56:30.955Z,45.25
2023-02-11T14:58:58.743Z,47.13
2023-02-11T15:01:33.742Z,53.90
2023-02-11T15:04:03.561Z,49.40
2023-02-11T15:06:37.229Z,48.20
2023-02-11T15:09:06.750Z,51.13
2023-02-11T15:11:40.296Z,72.03
2023-02-11T15:14:17.144Z,60.75
2023-02-11T15:16:45.379Z,54.28
2023-02-11T15:19:23.083Z,61.97
2023-02-11T15:21:50.685Z,48.25
2023-02-11T15:24:30.295Z,52.90
2023-02-11T15:27:15.910Z,62.58
2023-02-11T15:29:50.760Z,55.15
2023-02-11T15:32:25.503Z,53.25
2023-02-11T15:34:54.783Z,53.92
2023-02-11T15:37:27.150Z,54.25
2023-02-11T15:39:55.329Z,52.75
2023-02-11T15:42:35.840Z,51.25
2023-02-11T15:45:14.412Z,51.65
2023-02-11T15:47:47.764Z,50.85
2023-02-11T15:50:31.134Z,49.15
2023-02-11T15:53:02.603Z,51.35
2023-02-11T15:55:30.508Z,52.60
2023-02-11T15:58:00.198Z,51.95
2023-02-11T16:00:45.136Z,53.65
2023-02-11T16:03:32.365Z,54.03
2023-02-11T16:06:25.261Z,52.78
2023-02-11T16:09:20.854Z,59.40
2023-02-11T16:11:48.150Z,55.08
2023-02-11T16:14:27.364Z,54.42
2023-02-11T16:17:06.090Z,55.08
2023-02-11T16:19:34.350Z,57.72
2023-02-11T16:22:10.971Z,54.72
2023-02-11T16:24:39.306Z,54.65
2023-02-11T16:27:28.711Z,56.13
2023-02-11T16:29:56.289Z,55.95
2023-02-11T16:32:26.646Z,57.97
2023-02-11T16:34:55.133Z,57.55
2023-02-11T16:37:22.397Z,56.40
2023-02-11T16:39:48.980Z,57.00
2023-02-11T16:42:16.494Z,53.83
2023-02-11T16:44:43.208Z,54.83
2023-02-11T16:47:20.236Z,55.58
2023-02-11T16:49:46.890Z,57.05
2023-02-11T16:52:16.120Z,57.20
2023-02-11T16:54:42.772Z,54.42
2023-02-11T16:57:18.541Z,60.65
2023-02-11T16:59:45.795Z,58.88
2023-02-11T17:02:24.063Z,55.88
2023-02-11T17:04:53.406Z,56.50
2023-02-11T17:07:20.867Z,64.72
2023-02-11T17:09:47.603Z,63.35
2023-02-11T17:12:15.040Z,67.80
2023-02-11T17:14:41.628Z,73.38
2023-02-11T17:17:10.285Z,71.55
2023-02-11T17:19:37.297Z,68.45
2023-02-11T17:22:05.172Z,65.60
2023-02-11T17:24:31.960Z,65.78
2023-02-11T17:26:59.294Z,73.03
2023-02-11T17:29:25.997Z,68.15
2023-02-11T17:31:53.685Z,66.07
2023-02-11T17:34:21.713Z,71.10
2023-02-11T17:36:49.530Z,71.68
2023-02-11T17:39:16.412Z,66.80
2023-02-11T17:41:43.780Z,67.95
2023-02-11T17:44:16.155Z,75.68
2023-02-11T17:46:43.886Z,67.40
2023-02-11T17:49:11.927Z,65.50
2023-02-11T17:51:40.171Z,66.32
2023-02-11T17:54:10.850Z,65.95
2023-02-11T17:56:38.656Z,69.03
2023-02-11T17:59:08.153Z,67.55
2023-02-11T18:01:37.084Z,64.10
2023-02-11T18:04:04.710Z,67.15
2023-02-11T18:06:34.000Z,66.35
2023-02-11T18:09:04.017Z,67.70
2023-02-11T18:11:34.247Z,65.85
2023-02-11T18:14:02.560Z,67.47
2023-02-11T18:16:30.661Z,65.25
2023-02-11T18:18:58.751Z,67.75
2023-02-11T18:21:26.510Z,69.50
2023-02-11T18:23:53.523Z,72.65
2023-02-11T18:26:21.705Z,73.13
2023-02-11T18:28:48.557Z,70.30
2023-02-11T18:31:16.143Z,65.57
2023-02-11T18:33:43.351Z,63.83
2023-02-11T18:36:15.133Z,64.70
2023-02-11T18:38:44.097Z,63.30
2023-02-11T18:41:12.511Z,65.13
2023-02-11T18:43:39.983Z,63.97
2023-02-11T18:46:09.041Z,73.57
2023-02-11T18:48:35.859Z,66.35
2023-02-11T18:51:07.807Z,63.63
2023-02-11T18:53:34.404Z,63.83
2023-02-11T18:56:10.916Z,66.18
2023-02-11T18:58:38.155Z,66.40
2023-02-11T19:01:14.483Z,61.85
2023-02-11T19:04:02.683Z,65.70
2023-02-11T19:06:32.764Z,64.57
2023-02-11T19:09:01.694Z,63.10
2023-02-11T19:11:49.432Z,65.68
2023-02-11T19:14:19.400Z,65.97
2023-02-11T19:16:47.991Z,68.65
2023-02-11T19:19:14.735Z,68.57
2023-02-11T19:21:44.186Z,65.38
2023-02-11T19:24:12.263Z,68.65
2023-02-11T19:26:39.704Z,69.85
2023-02-11T19:29:06.649Z,69.38
2023-02-11T19:31:34.952Z,71.20
2023-02-11T19:34:02.884Z,70.55
2023-02-11T19:36:30.257Z,67.07
2023-02-11T19:39:02.791Z,66.00
2023-02-11T19:41:31.661Z,67.90
2023-02-11T19:43:58.346Z,67.78
2023-02-11T19:46:28.737Z,69.72
2023-02-11T19:48:55.608Z,67.03
2023-02-11T19:51:22.950Z,68.03
2023-02-11T19:53:51.109Z,69.30
2023-02-11T19:56:20.838Z,66.70
2023-02-11T19:58:47.962Z,67.97
2023-02-11T20:01:20.428Z,70.13
2023-02-11T20:03:51.980Z,48.47
2023-02-11T20:06:23.662Z,65.28
2023-02-11T20:09:01.780Z,66.90
2023-02-11T20:11:30.829Z,64.97
2023-02-11T20:13:57.777Z,65.35
2023-02-11T20:16:44.694Z,68.05
2023-02-11T20:19:19.441Z,66.00
2023-02-11T20:21:48.665Z,66.80
2023-02-11T20:24:19.917Z,66.15
2023-02-11T20:26:48.095Z,66.43
2023-02-11T20:29:17.053Z,65.47
2023-02-11T20:31:44.896Z,67.50
2023-02-11T20:34:12.352Z,66.85
2023-02-11T20:36:40.790Z,66.63
2023-02-11T20:39:08.323Z,66.13
2023-02-11T20:41:39.686Z,67.85
2023-02-11T20:44:08.427Z,67.63
2023-02-11T20:46:38.748Z,68.32
2023-02-11T20:49:05.870Z,71.93
2023-02-11T20:51:34.661Z,70.95
2023-02-11T20:54:01.380Z,65.68
2023-02-11T20:56:32.133Z,66.68
2023-02-11T20:58:59.987Z,62.60
2023-02-11T21:01:31.350Z,64.28
2023-02-11T21:04:00.486Z,63.72
2023-02-11T21:06:32.881Z,63.22
2023-02-11T21:08:59.691Z,63.80
2023-02-11T21:11:26.965Z,64.18
2023-02-11T21:13:53.984Z,62.80
2023-02-11T21:16:21.057Z,71.28
2023-02-11T21:18:50.315Z,65.13
2023-02-11T21:21:18.632Z,64.68
2023-02-11T21:23:46.228Z,74.93
2023-02-11T21:26:14.425Z,71.10
2023-02-11T21:28:41.384Z,71.95
2023-02-11T21:31:16.435Z,65.70
2023-02-11T21:33:43.052Z,64.72
2023-02-11T21:36:10.385Z,65.00
2023-02-11T21:38:36.981Z,62.85
2023-02-11T21:41:05.860Z,62.13
2023-02-11T21:43:32.983Z,60.55
2023-02-11T21:46:00.252Z,64.75
2023-02-11T21:48:27.055Z,62.13
2023-02-11T21:50:55.025Z,65.93
2023-02-11T21:53:21.983Z,65.15
2023-02-11T21:55:51.578Z,63.35
2023-02-11T21:58:18.223Z,66.97
2023-02-11T22:00:45.637Z,71.20
2023-02-11T22:03:12.502Z,67.00
2023-02-11T22:05:41.420Z,63.38
2023-02-11T22:08:08.176Z,61.63
2023-02-11T22:10:35.460Z,69.15
2023-02-11T22:13:02.090Z,67.50
2023-02-11T22:15:29.408Z,78.63
2023-02-11T22:17:56.017Z,67.13
2023-02-11T22:20:23.399Z,64.00
2023-02-11T22:22:50.668Z,66.45
2023-02-11T22:25:19.074Z,65.00
2023-02-11T22:27:45.708Z,63.13
2023-02-11T22:30:14.366Z,64.07
2023-02-11T22:32:42.399Z,68.00
2023-02-11T22:35:09.880Z,65.35
2023-02-11T22:37:36.504Z,63.97
2023-02-11T22:40:04.229Z,64.90
2023-02-11T22:42:30.847Z,63.88
2023-02-11T22:44:58.454Z,69.68
2023-02-11T22:47:25.201Z,65.10
2023-02-11T22:49:52.128Z,65.05
2023-02-11T22:52:18.702Z,64.75
2023-02-11T22:54:46.315Z,65.53
2023-02-11T22:57:12.913Z,65.40
2023-02-11T22:59:40.226Z,64.05
2023-02-11T23:02:06.947Z,65.75
2023-02-11T23:04:34.310Z,66.05
2023-02-11T23:07:00.884Z,61.88
2023-02-11T23:09:28.183Z,62.50
2023-02-11T23:11:55.465Z,63.55
2023-02-11T23:14:22.889Z,63.75
2023-02-11T23:16:51.326Z,62.15
2023-02-11T23:19:19.852Z,62.75
2023-02-11T23:21:50.100Z,64.68
2023-02-11T23:24:17.480Z,66.43
2023-02-11T23:26:44.357Z,64.68
2023-02-11T23:29:12.219Z,64.85
2023-02-11T23:31:43.198Z,67.85
2023-02-11T23:34:10.632Z,67.15
2023-02-11T23:36:37.319Z,69.72
2023-02-11T23:39:05.035Z,66.45
2023-02-11T23:41:31.982Z,64.63
2023-02-11T23:43:59.538Z,67.25
2023-02-11T23:46:26.970Z,66.13
2023-02-11T23:48:54.427Z,65.85
2023-02-11T23:51:21.857Z,66.03
2023-02-11T23:53:49.881Z,62.13
2023-02-11T23:56:25.152Z,63.00
2023-02-11T23:58:54.979Z,63.35
